sensor_id;sensor_type;location;lat;lon;timestamp;P1;durP1;ratioP1;P2;durP2;ratioP2
76989;SDS011;65924;47.250;11.332;2024-03-06T00:00:24;3.20;;;1.00;;
76989;SDS011;65924;47.250;11.332;2024-03-06T00:00:54;2.60;;;1.10;;
76989;SDS011;65924;47.250;11.332;2024-03-06T00:01:25;4.00;;;1.20;;
76989;SDS011;65924;47.250;11.332;2024-03-06T00:01:55;2.50;;;1.20;;
76989;SDS011;65924;47.250;11.332;2024-03-06T00:02:26;2.50;;;1.30;;
76989;SDS011;65924;47.250;11.332;2024-03-06T00:02:56;3.80;;;1.00;;
76989;SDS011;65924;47.250;11.332;2024-03-06T00:03:26;4.40;;;1.20;;
76989;SDS011;65924;47.250;11.332;2024-03-06T00:03:57;3.10;;;1.50;;
76989;SDS011;65924;47.250;11.332;2024-03-06T00:04:28;3.10;;;1.00;;
76989;SDS011;65924;47.250;11.332;2024-03-06T00:04:58;2.80;;;1.50;;
76989;SDS011;65924;47.250;11.332;2024-03-06T00:05:29;2.90;;;1.10;;
76989;SDS011;65924;47.250;11.332;2024-03-06T00:05:59;3.20;;;1.90;;
76989;SDS011;65924;47.250;11.332;2024-03-06T00:06:30;4.30;;;1.10;;
76989;SDS011;65924;47.250;11.332;2024-03-06T00:07:00;3.40;;;1.00;;
76989;SDS011;65924;47.250;11.332;2024-03-06T00:07:31;2.80;;;0.90;;
76989;SDS011;65924;47.250;11.332;2024-03-06T00:08:01;2.70;;;1.10;;
76989;SDS011;65924;47.250;11.332;2024-03-06T00:08:34;2.10;;;1.00;;
76989;SDS011;65924;47.250;11.332;2024-03-06T00:09:04;3.00;;;1.00;;
76989;SDS011;65924;47.250;11.332;2024-03-06T00:09:35;3.60;;;1.40;;
76989;SDS011;65924;47.250;11.332;2024-03-06T00:10:06;3.10;;;1.50;;
76989;SDS011;65924;47.250;11.332;2024-03-06T00:10:37;5.40;;;1.20;;
76989;SDS011;65924;47.250;11.332;2024-03-06T00:11:07;5.70;;;1.20;;
76989;SDS011;65924;47.250;11.332;2024-03-06T00:11:38;2.60;;;1.10;;
76989;SDS011;65924;47.250;11.332;2024-03-06T00:12:08;3.80;;;1.10;;
76989;SDS011;65924;47.250;11.332;2024-03-06T00:12:39;3.60;;;1.10;;
76989;SDS011;65924;47.250;11.332;2024-03-06T00:13:10;4.50;;;0.90;;
76989;SDS011;65924;47.250;11.332;2024-03-06T00:13:41;3.10;;;1.00;;
76989;SDS011;65924;47.250;11.332;2024-03-06T00:14:11;2.90;;;0.90;;
76989;SDS011;65924;47.250;11.332;2024-03-06T00:14:45;2.50;;;1.10;;
76989;SDS011;65924;47.250;11.332;2024-03-06T00:15:15;2.70;;;1.60;;
76989;SDS011;65924;47.250;11.332;2024-03-06T00:15:46;2.70;;;1.10;;
76989;SDS011;65924;47.250;11.332;2024-03-06T00:16:16;3.20;;;1.30;;
76989;SDS011;65924;47.250;11.332;2024-03-06T00:16:47;4.10;;;1.20;;
76989;SDS011;65924;47.250;11.332;2024-03-06T00:17:18;2.80;;;0.90;;
76989;SDS011;65924;47.250;11.332;2024-03-06T00:17:48;2.60;;;0.90;;
76989;SDS011;65924;47.250;11.332;2024-03-06T00:18:19;3.70;;;1.20;;
76989;SDS011;65924;47.250;11.332;2024-03-06T00:18:50;7.30;;;1.20;;
76989;SDS011;65924;47.250;11.332;2024-03-06T00:19:20;2.90;;;1.20;;
76989;SDS011;65924;47.250;11.332;2024-03-06T00:19:50;2.30;;;1.00;;
76989;SDS011;65924;47.250;11.332;2024-03-06T00:20:21;2.70;;;0.80;;
76989;SDS011;65924;47.250;11.332;2024-03-06T00:20:51;3.10;;;1.30;;
76989;SDS011;65924;47.250;11.332;2024-03-06T00:21:22;2.30;;;1.00;;
76989;SDS011;65924;47.250;11.332;2024-03-06T00:21:53;2.80;;;1.10;;
76989;SDS011;65924;47.250;11.332;2024-03-06T00:22:24;2.60;;;1.30;;
76989;SDS011;65924;47.250;11.332;2024-03-06T00:22:54;2.30;;;1.00;;
76989;SDS011;65924;47.250;11.332;2024-03-06T00:23:25;2.80;;;1.20;;
76989;SDS011;65924;47.250;11.332;2024-03-06T00:23:56;2.80;;;1.20;;
76989;SDS011;65924;47.250;11.332;2024-03-06T00:24:26;3.20;;;1.20;;
76989;SDS011;65924;47.250;11.332;2024-03-06T00:24:57;2.90;;;1.20;;
76989;SDS011;65924;47.250;11.332;2024-03-06T00:25:28;2.50;;;1.00;;
76989;SDS011;65924;47.250;11.332;2024-03-06T00:25:59;2.50;;;1.20;;
76989;SDS011;65924;47.250;11.332;2024-03-06T00:26:29;2.60;;;0.90;;
76989;SDS011;65924;47.250;11.332;2024-03-06T00:27:00;2.80;;;1.20;;
76989;SDS011;65924;47.250;11.332;2024-03-06T00:27:30;2.30;;;0.90;;
76989;SDS011;65924;47.250;11.332;2024-03-06T00:28:01;2.80;;;1.20;;
76989;SDS011;65924;47.250;11.332;2024-03-06T00:28:31;4.10;;;1.20;;
76989;SDS011;65924;47.250;11.332;2024-03-06T00:29:02;3.00;;;1.20;;
76989;SDS011;65924;47.250;11.332;2024-03-06T00:29:32;2.90;;;1.30;;
76989;SDS011;65924;47.250;11.332;2024-03-06T00:30:03;3.00;;;1.30;;
76989;SDS011;65924;47.250;11.332;2024-03-06T00:30:33;2.30;;;0.80;;
76989;SDS011;65924;47.250;11.332;2024-03-06T00:31:07;3.90;;;1.10;;
76989;SDS011;65924;47.250;11.332;2024-03-06T00:31:44;2.90;;;1.20;;
76989;SDS011;65924;47.250;11.332;2024-03-06T00:32:14;3.30;;;1.20;;
76989;SDS011;65924;47.250;11.332;2024-03-06T00:32:45;3.00;;;1.10;;
76989;SDS011;65924;47.250;11.332;2024-03-06T00:33:15;2.60;;;1.00;;
76989;SDS011;65924;47.250;11.332;2024-03-06T00:33:46;2.90;;;1.50;;
76989;SDS011;65924;47.250;11.332;2024-03-06T00:34:16;3.40;;;1.00;;
76989;SDS011;65924;47.250;11.332;2024-03-06T00:34:47;2.30;;;1.20;;
76989;SDS011;65924;47.250;11.332;2024-03-06T00:35:17;2.70;;;1.10;;
76989;SDS011;65924;47.250;11.332;2024-03-06T00:35:49;2.90;;;1.10;;
76989;SDS011;65924;47.250;11.332;2024-03-06T00:36:20;2.20;;;0.90;;
76989;SDS011;65924;47.250;11.332;2024-03-06T00:36:52;2.60;;;1.20;;
76989;SDS011;65924;47.250;11.332;2024-03-06T00:37:24;3.80;;;1.60;;
76989;SDS011;65924;47.250;11.332;2024-03-06T00:37:54;2.30;;;0.90;;
76989;SDS011;65924;47.250;11.332;2024-03-06T00:38:25;2.50;;;1.00;;
76989;SDS011;65924;47.250;11.332;2024-03-06T00:38:55;2.80;;;1.30;;
76989;SDS011;65924;47.250;11.332;2024-03-06T00:39:25;3.40;;;1.20;;
76989;SDS011;65924;47.250;11.332;2024-03-06T00:39:57;3.20;;;1.50;;
76989;SDS011;65924;47.250;11.332;2024-03-06T00:40:28;3.00;;;1.50;;
76989;SDS011;65924;47.250;11.332;2024-03-06T00:41:01;3.00;;;1.50;;
76989;SDS011;65924;47.250;11.332;2024-03-06T00:41:31;2.90;;;1.20;;
76989;SDS011;65924;47.250;11.332;2024-03-06T00:42:02;4.10;;;1.40;;
76989;SDS011;65924;47.250;11.332;2024-03-06T00:42:33;2.90;;;1.30;;
76989;SDS011;65924;47.250;11.332;2024-03-06T00:43:03;3.20;;;1.40;;
76989;SDS011;65924;47.250;11.332;2024-03-06T00:43:34;3.60;;;1.30;;
76989;SDS011;65924;47.250;11.332;2024-03-06T00:44:04;3.00;;;1.30;;
76989;SDS011;65924;47.250;11.332;2024-03-06T00:44:36;3.80;;;1.20;;
76989;SDS011;65924;47.250;11.332;2024-03-06T00:45:06;3.20;;;1.40;;
76989;SDS011;65924;47.250;11.332;2024-03-06T00:45:37;2.70;;;1.00;;
76989;SDS011;65924;47.250;11.332;2024-03-06T00:46:07;2.70;;;1.10;;
76989;SDS011;65924;47.250;11.332;2024-03-06T00:46:38;2.90;;;1.40;;
76989;SDS011;65924;47.250;11.332;2024-03-06T00:47:09;4.10;;;1.40;;
76989;SDS011;65924;47.250;11.332;2024-03-06T00:47:39;2.60;;;1.20;;
76989;SDS011;65924;47.250;11.332;2024-03-06T00:48:09;3.20;;;1.30;;
76989;SDS011;65924;47.250;11.332;2024-03-06T00:48:40;2.70;;;1.20;;
76989;SDS011;65924;47.250;11.332;2024-03-06T00:49:10;3.10;;;1.10;;
76989;SDS011;65924;47.250;11.332;2024-03-06T00:49:41;3.10;;;1.20;;
76989;SDS011;65924;47.250;11.332;2024-03-06T00:50:12;2.80;;;1.10;;
76989;SDS011;65924;47.250;11.332;2024-03-06T00:50:42;3.20;;;1.20;;
76989;SDS011;65924;47.250;11.332;2024-03-06T00:51:13;2.60;;;1.00;;
76989;SDS011;65924;47.250;11.332;2024-03-06T00:51:43;3.50;;;1.20;;
76989;SDS011;65924;47.250;11.332;2024-03-06T00:52:17;2.70;;;0.90;;
76989;SDS011;65924;47.250;11.332;2024-03-06T00:52:47;3.30;;;1.40;;
76989;SDS011;65924;47.250;11.332;2024-03-06T00:53:18;6.90;;;1.10;;
76989;SDS011;65924;47.250;11.332;2024-03-06T00:53:49;2.10;;;0.90;;
76989;SDS011;65924;47.250;11.332;2024-03-06T00:54:19;2.60;;;1.00;;
76989;SDS011;65924;47.250;11.332;2024-03-06T00:54:50;3.10;;;0.90;;
76989;SDS011;65924;47.250;11.332;2024-03-06T00:55:20;3.70;;;1.10;;
76989;SDS011;65924;47.250;11.332;2024-03-06T00:55:50;2.90;;;1.10;;
76989;SDS011;65924;47.250;11.332;2024-03-06T00:56:21;4.80;;;1.20;;
76989;SDS011;65924;47.250;11.332;2024-03-06T00:56:51;2.20;;;0.90;;
76989;SDS011;65924;47.250;11.332;2024-03-06T00:57:22;3.00;;;1.10;;
76989;SDS011;65924;47.250;11.332;2024-03-06T00:57:52;3.40;;;0.80;;
76989;SDS011;65924;47.250;11.332;2024-03-06T00:58:23;3.80;;;1.20;;
76989;SDS011;65924;47.250;11.332;2024-03-06T00:58:53;2.70;;;1.00;;
76989;SDS011;65924;47.250;11.332;2024-03-06T00:59:23;4.90;;;1.20;;
76989;SDS011;65924;47.250;11.332;2024-03-06T00:59:54;2.90;;;1.00;;
76989;SDS011;65924;47.250;11.332;2024-03-06T01:00:24;3.30;;;1.10;;
76989;SDS011;65924;47.250;11.332;2024-03-06T01:00:55;1.90;;;0.70;;
76989;SDS011;65924;47.250;11.332;2024-03-06T01:01:25;2.00;;;1.00;;
76989;SDS011;65924;47.250;11.332;2024-03-06T01:01:57;2.20;;;1.00;;
76989;SDS011;65924;47.250;11.332;2024-03-06T01:02:28;2.20;;;0.90;;
76989;SDS011;65924;47.250;11.332;2024-03-06T01:02:58;2.70;;;1.30;;
76989;SDS011;65924;47.250;11.332;2024-03-06T01:03:29;2.20;;;1.00;;
76989;SDS011;65924;47.250;11.332;2024-03-06T01:03:59;2.40;;;0.90;;
76989;SDS011;65924;47.250;11.332;2024-03-06T01:04:29;2.40;;;1.00;;
76989;SDS011;65924;47.250;11.332;2024-03-06T01:05:01;3.10;;;0.70;;
76989;SDS011;65924;47.250;11.332;2024-03-06T01:05:31;6.10;;;1.50;;
76989;SDS011;65924;47.250;11.332;2024-03-06T01:06:01;3.20;;;0.90;;
76989;SDS011;65924;47.250;11.332;2024-03-06T01:06:32;4.40;;;0.80;;
76989;SDS011;65924;47.250;11.332;2024-03-06T01:07:03;4.50;;;0.80;;
76989;SDS011;65924;47.250;11.332;2024-03-06T01:07:34;5.00;;;1.30;;
76989;SDS011;65924;47.250;11.332;2024-03-06T01:08:05;2.90;;;0.90;;
76989;SDS011;65924;47.250;11.332;2024-03-06T01:08:35;1.90;;;0.90;;
76989;SDS011;65924;47.250;11.332;2024-03-06T01:09:06;3.00;;;1.20;;
76989;SDS011;65924;47.250;11.332;2024-03-06T01:09:37;3.80;;;0.90;;
76989;SDS011;65924;47.250;11.332;2024-03-06T01:10:07;1.90;;;0.80;;
76989;SDS011;65924;47.250;11.332;2024-03-06T01:10:38;2.80;;;1.30;;
76989;SDS011;65924;47.250;11.332;2024-03-06T01:11:08;2.10;;;0.70;;
76989;SDS011;65924;47.250;11.332;2024-03-06T01:11:40;2.00;;;0.80;;
76989;SDS011;65924;47.250;11.332;2024-03-06T01:12:11;2.40;;;1.10;;
76989;SDS011;65924;47.250;11.332;2024-03-06T01:12:41;2.50;;;0.70;;
76989;SDS011;65924;47.250;11.332;2024-03-06T01:13:15;2.30;;;0.80;;
76989;SDS011;65924;47.250;11.332;2024-03-06T01:13:46;2.90;;;0.80;;
76989;SDS011;65924;47.250;11.332;2024-03-06T01:14:16;2.90;;;1.10;;
76989;SDS011;65924;47.250;11.332;2024-03-06T01:14:47;3.10;;;1.10;;
76989;SDS011;65924;47.250;11.332;2024-03-06T01:15:17;3.00;;;1.20;;
76989;SDS011;65924;47.250;11.332;2024-03-06T01:15:48;2.50;;;0.90;;
76989;SDS011;65924;47.250;11.332;2024-03-06T01:16:18;3.20;;;1.00;;
76989;SDS011;65924;47.250;11.332;2024-03-06T01:16:49;3.30;;;0.80;;
76989;SDS011;65924;47.250;11.332;2024-03-06T01:17:19;2.30;;;0.90;;
76989;SDS011;65924;47.250;11.332;2024-03-06T01:17:50;3.70;;;1.00;;
76989;SDS011;65924;47.250;11.332;2024-03-06T01:18:20;2.70;;;1.00;;
76989;SDS011;65924;47.250;11.332;2024-03-06T01:18:50;2.20;;;0.80;;
76989;SDS011;65924;47.250;11.332;2024-03-06T01:19:21;2.10;;;0.80;;
76989;SDS011;65924;47.250;11.332;2024-03-06T01:19:51;2.50;;;0.90;;
76989;SDS011;65924;47.250;11.332;2024-03-06T01:20:22;2.30;;;0.90;;
76989;SDS011;65924;47.250;11.332;2024-03-06T01:20:52;1.70;;;0.70;;
76989;SDS011;65924;47.250;11.332;2024-03-06T01:21:22;3.40;;;1.10;;
76989;SDS011;65924;47.250;11.332;2024-03-06T01:21:53;3.20;;;0.80;;
76989;SDS011;65924;47.250;11.332;2024-03-06T01:22:23;6.20;;;0.90;;
76989;SDS011;65924;47.250;11.332;2024-03-06T01:22:53;2.60;;;0.80;;
76989;SDS011;65924;47.250;11.332;2024-03-06T01:23:24;2.00;;;0.70;;
76989;SDS011;65924;47.250;11.332;2024-03-06T01:23:54;2.50;;;0.80;;
76989;SDS011;65924;47.250;11.332;2024-03-06T01:24:25;2.00;;;0.70;;
76989;SDS011;65924;47.250;11.332;2024-03-06T01:24:55;1.80;;;0.70;;
76989;SDS011;65924;47.250;11.332;2024-03-06T01:25:25;1.50;;;0.60;;
76989;SDS011;65924;47.250;11.332;2024-03-06T01:25:56;2.20;;;0.90;;
76989;SDS011;65924;47.250;11.332;2024-03-06T01:26:26;3.10;;;0.90;;
76989;SDS011;65924;47.250;11.332;2024-03-06T01:26:56;2.40;;;1.00;;
76989;SDS011;65924;47.250;11.332;2024-03-06T01:27:27;2.90;;;0.60;;
76989;SDS011;65924;47.250;11.332;2024-03-06T01:27:58;3.80;;;0.80;;
76989;SDS011;65924;47.250;11.332;2024-03-06T01:28:28;1.90;;;0.80;;
76989;SDS011;65924;47.250;11.332;2024-03-06T01:28:58;2.00;;;0.70;;
76989;SDS011;65924;47.250;11.332;2024-03-06T01:29:29;3.70;;;0.80;;
76989;SDS011;65924;47.250;11.332;2024-03-06T01:29:59;2.80;;;0.80;;
76989;SDS011;65924;47.250;11.332;2024-03-06T01:30:30;2.50;;;0.60;;
76989;SDS011;65924;47.250;11.332;2024-03-06T01:31:00;4.10;;;0.80;;
76989;SDS011;65924;47.250;11.332;2024-03-06T01:31:30;2.40;;;1.30;;
76989;SDS011;65924;47.250;11.332;2024-03-06T01:32:01;2.40;;;0.90;;
76989;SDS011;65924;47.250;11.332;2024-03-06T01:32:32;1.90;;;0.70;;
76989;SDS011;65924;47.250;11.332;2024-03-06T01:33:03;2.30;;;0.70;;
76989;SDS011;65924;47.250;11.332;2024-03-06T01:33:35;3.80;;;1.20;;
76989;SDS011;65924;47.250;11.332;2024-03-06T01:34:05;2.80;;;1.00;;
76989;SDS011;65924;47.250;11.332;2024-03-06T01:34:36;1.90;;;0.90;;
76989;SDS011;65924;47.250;11.332;2024-03-06T01:35:06;1.10;;;0.50;;
76989;SDS011;65924;47.250;11.332;2024-03-06T01:35:37;4.90;;;0.70;;
76989;SDS011;65924;47.250;11.332;2024-03-06T01:36:07;2.10;;;0.80;;
76989;SDS011;65924;47.250;11.332;2024-03-06T01:36:38;2.10;;;1.00;;
76989;SDS011;65924;47.250;11.332;2024-03-06T01:37:08;1.90;;;0.80;;
76989;SDS011;65924;47.250;11.332;2024-03-06T01:37:39;2.10;;;0.90;;
76989;SDS011;65924;47.250;11.332;2024-03-06T01:38:09;1.90;;;0.70;;
76989;SDS011;65924;47.250;11.332;2024-03-06T01:38:40;2.10;;;1.20;;
76989;SDS011;65924;47.250;11.332;2024-03-06T01:39:11;2.20;;;0.90;;
76989;SDS011;65924;47.250;11.332;2024-03-06T01:39:42;2.80;;;0.90;;
76989;SDS011;65924;47.250;11.332;2024-03-06T01:40:12;1.60;;;1.00;;
76989;SDS011;65924;47.250;11.332;2024-03-06T01:40:43;1.90;;;0.60;;
76989;SDS011;65924;47.250;11.332;2024-03-06T01:41:14;2.00;;;0.70;;
76989;SDS011;65924;47.250;11.332;2024-03-06T01:41:48;2.20;;;0.80;;
76989;SDS011;65924;47.250;11.332;2024-03-06T01:42:19;1.90;;;1.00;;
76989;SDS011;65924;47.250;11.332;2024-03-06T01:42:49;2.80;;;1.10;;
76989;SDS011;65924;47.250;11.332;2024-03-06T01:43:22;2.10;;;0.90;;
76989;SDS011;65924;47.250;11.332;2024-03-06T01:43:53;2.40;;;0.90;;
76989;SDS011;65924;47.250;11.332;2024-03-06T01:44:23;2.10;;;1.00;;
76989;SDS011;65924;47.250;11.332;2024-03-06T01:44:54;1.20;;;0.50;;
76989;SDS011;65924;47.250;11.332;2024-03-06T01:45:24;4.10;;;1.10;;
76989;SDS011;65924;47.250;11.332;2024-03-06T01:45:54;1.70;;;0.80;;
76989;SDS011;65924;47.250;11.332;2024-03-06T01:46:25;1.70;;;0.70;;
76989;SDS011;65924;47.250;11.332;2024-03-06T01:46:55;2.40;;;1.10;;
76989;SDS011;65924;47.250;11.332;2024-03-06T01:47:26;2.50;;;1.20;;
76989;SDS011;65924;47.250;11.332;2024-03-06T01:47:56;2.40;;;1.00;;
76989;SDS011;65924;47.250;11.332;2024-03-06T01:48:27;2.70;;;1.10;;
76989;SDS011;65924;47.250;11.332;2024-03-06T01:48:58;2.30;;;0.80;;
76989;SDS011;65924;47.250;11.332;2024-03-06T01:49:30;2.90;;;0.80;;
76989;SDS011;65924;47.250;11.332;2024-03-06T01:50:01;3.40;;;0.80;;
76989;SDS011;65924;47.250;11.332;2024-03-06T01:50:31;1.60;;;0.60;;
76989;SDS011;65924;47.250;11.332;2024-03-06T01:51:02;2.20;;;0.80;;
76989;SDS011;65924;47.250;11.332;2024-03-06T01:51:35;2.30;;;1.00;;
76989;SDS011;65924;47.250;11.332;2024-03-06T01:52:05;1.80;;;0.70;;
76989;SDS011;65924;47.250;11.332;2024-03-06T01:52:36;2.40;;;1.10;;
76989;SDS011;65924;47.250;11.332;2024-03-06T01:53:38;2.20;;;0.90;;
76989;SDS011;65924;47.250;11.332;2024-03-06T01:54:09;2.30;;;0.80;;
76989;SDS011;65924;47.250;11.332;2024-03-06T01:54:40;2.40;;;0.80;;
76989;SDS011;65924;47.250;11.332;2024-03-06T01:55:11;2.20;;;1.10;;
76989;SDS011;65924;47.250;11.332;2024-03-06T01:55:42;2.00;;;0.80;;
76989;SDS011;65924;47.250;11.332;2024-03-06T01:56:13;1.80;;;0.80;;
76989;SDS011;65924;47.250;11.332;2024-03-06T01:56:47;2.20;;;0.80;;
76989;SDS011;65924;47.250;11.332;2024-03-06T01:57:19;2.40;;;1.10;;
76989;SDS011;65924;47.250;11.332;2024-03-06T01:57:50;2.10;;;0.90;;
76989;SDS011;65924;47.250;11.332;2024-03-06T01:58:20;2.40;;;0.80;;
76989;SDS011;65924;47.250;11.332;2024-03-06T01:58:51;3.20;;;1.00;;
76989;SDS011;65924;47.250;11.332;2024-03-06T01:59:21;2.40;;;0.90;;
76989;SDS011;65924;47.250;11.332;2024-03-06T01:59:56;2.40;;;0.80;;
76989;SDS011;65924;47.250;11.332;2024-03-06T02:00:26;1.80;;;0.70;;
76989;SDS011;65924;47.250;11.332;2024-03-06T02:00:56;2.10;;;0.90;;
76989;SDS011;65924;47.250;11.332;2024-03-06T02:01:28;3.60;;;0.90;;
76989;SDS011;65924;47.250;11.332;2024-03-06T02:01:59;2.10;;;0.80;;
76989;SDS011;65924;47.250;11.332;2024-03-06T02:02:31;2.50;;;1.00;;
76989;SDS011;65924;47.250;11.332;2024-03-06T02:03:02;1.90;;;0.80;;
76989;SDS011;65924;47.250;11.332;2024-03-06T02:03:32;1.50;;;0.60;;
76989;SDS011;65924;47.250;11.332;2024-03-06T02:04:03;1.90;;;0.70;;
76989;SDS011;65924;47.250;11.332;2024-03-06T02:04:34;2.50;;;1.20;;
76989;SDS011;65924;47.250;11.332;2024-03-06T02:05:05;1.90;;;0.90;;
76989;SDS011;65924;47.250;11.332;2024-03-06T02:05:36;2.10;;;0.80;;
76989;SDS011;65924;47.250;11.332;2024-03-06T02:06:07;2.50;;;1.10;;
76989;SDS011;65924;47.250;11.332;2024-03-06T02:06:40;1.90;;;0.80;;
76989;SDS011;65924;47.250;11.332;2024-03-06T02:07:11;2.70;;;1.20;;
76989;SDS011;65924;47.250;11.332;2024-03-06T02:07:43;1.70;;;0.70;;
76989;SDS011;65924;47.250;11.332;2024-03-06T02:08:16;2.20;;;1.00;;
76989;SDS011;65924;47.250;11.332;2024-03-06T02:08:46;2.70;;;1.00;;
76989;SDS011;65924;47.250;11.332;2024-03-06T02:09:17;2.10;;;0.90;;
76989;SDS011;65924;47.250;11.332;2024-03-06T02:09:48;2.20;;;0.80;;
76989;SDS011;65924;47.250;11.332;2024-03-06T02:10:19;2.40;;;0.90;;
76989;SDS011;65924;47.250;11.332;2024-03-06T02:10:49;2.70;;;0.80;;
76989;SDS011;65924;47.250;11.332;2024-03-06T02:11:20;2.30;;;0.90;;
76989;SDS011;65924;47.250;11.332;2024-03-06T02:11:50;2.40;;;0.90;;
76989;SDS011;65924;47.250;11.332;2024-03-06T02:12:20;2.20;;;0.90;;
76989;SDS011;65924;47.250;11.332;2024-03-06T02:12:51;2.20;;;0.90;;
76989;SDS011;65924;47.250;11.332;2024-03-06T02:13:23;2.30;;;1.50;;
76989;SDS011;65924;47.250;11.332;2024-03-06T02:13:55;3.90;;;1.40;;
76989;SDS011;65924;47.250;11.332;2024-03-06T02:14:25;2.60;;;1.20;;
76989;SDS011;65924;47.250;11.332;2024-03-06T02:14:57;2.70;;;1.30;;
76989;SDS011;65924;47.250;11.332;2024-03-06T02:15:28;2.20;;;0.90;;
76989;SDS011;65924;47.250;11.332;2024-03-06T02:15:58;2.30;;;0.90;;
76989;SDS011;65924;47.250;11.332;2024-03-06T02:16:29;1.80;;;0.80;;
76989;SDS011;65924;47.250;11.332;2024-03-06T02:17:31;2.60;;;1.00;;
76989;SDS011;65924;47.250;11.332;2024-03-06T02:18:05;3.20;;;1.10;;
76989;SDS011;65924;47.250;11.332;2024-03-06T02:18:36;2.20;;;1.00;;
76989;SDS011;65924;47.250;11.332;2024-03-06T02:19:07;2.90;;;1.10;;
76989;SDS011;65924;47.250;11.332;2024-03-06T02:19:42;2.30;;;1.00;;
76989;SDS011;65924;47.250;11.332;2024-03-06T02:20:13;3.40;;;0.90;;
76989;SDS011;65924;47.250;11.332;2024-03-06T02:20:44;2.70;;;1.20;;
76989;SDS011;65924;47.250;11.332;2024-03-06T02:21:16;4.50;;;1.10;;
76989;SDS011;65924;47.250;11.332;2024-03-06T02:21:47;2.10;;;0.90;;
76989;SDS011;65924;47.250;11.332;2024-03-06T02:22:17;3.40;;;1.20;;
76989;SDS011;65924;47.250;11.332;2024-03-06T02:22:48;3.20;;;1.50;;
76989;SDS011;65924;47.250;11.332;2024-03-06T02:23:18;2.70;;;1.50;;
76989;SDS011;65924;47.250;11.332;2024-03-06T02:24:24;3.00;;;1.20;;
76989;SDS011;65924;47.250;11.332;2024-03-06T02:24:55;3.20;;;1.30;;
76989;SDS011;65924;47.250;11.332;2024-03-06T02:25:25;3.50;;;1.20;;
76989;SDS011;65924;47.250;11.332;2024-03-06T02:25:56;2.80;;;1.00;;
76989;SDS011;65924;47.250;11.332;2024-03-06T02:26:26;3.10;;;1.20;;
76989;SDS011;65924;47.250;11.332;2024-03-06T02:26:57;2.60;;;1.20;;
76989;SDS011;65924;47.250;11.332;2024-03-06T02:27:27;3.00;;;1.40;;
76989;SDS011;65924;47.250;11.332;2024-03-06T02:27:58;2.80;;;1.30;;
76989;SDS011;65924;47.250;11.332;2024-03-06T02:28:32;2.50;;;1.20;;
76989;SDS011;65924;47.250;11.332;2024-03-06T02:29:06;3.20;;;1.50;;
76989;SDS011;65924;47.250;11.332;2024-03-06T02:29:36;2.60;;;1.30;;
76989;SDS011;65924;47.250;11.332;2024-03-06T02:30:09;3.30;;;1.50;;
76989;SDS011;65924;47.250;11.332;2024-03-06T02:30:41;2.80;;;1.20;;
76989;SDS011;65924;47.250;11.332;2024-03-06T02:31:11;2.90;;;1.30;;
76989;SDS011;65924;47.250;11.332;2024-03-06T02:31:42;3.90;;;1.70;;
76989;SDS011;65924;47.250;11.332;2024-03-06T02:32:12;3.10;;;1.50;;
76989;SDS011;65924;47.250;11.332;2024-03-06T02:32:43;4.40;;;1.80;;
76989;SDS011;65924;47.250;11.332;2024-03-06T02:33:14;3.70;;;1.60;;
76989;SDS011;65924;47.250;11.332;2024-03-06T02:33:45;3.60;;;1.90;;
76989;SDS011;65924;47.250;11.332;2024-03-06T02:34:17;3.70;;;1.60;;
76989;SDS011;65924;47.250;11.332;2024-03-06T02:34:47;3.40;;;1.60;;
76989;SDS011;65924;47.250;11.332;2024-03-06T02:35:18;3.50;;;1.70;;
76989;SDS011;65924;47.250;11.332;2024-03-06T02:35:49;3.70;;;1.70;;
76989;SDS011;65924;47.250;11.332;2024-03-06T02:36:19;3.60;;;1.70;;
76989;SDS011;65924;47.250;11.332;2024-03-06T02:36:50;3.50;;;1.60;;
76989;SDS011;65924;47.250;11.332;2024-03-06T02:37:21;3.70;;;1.90;;
76989;SDS011;65924;47.250;11.332;2024-03-06T02:37:52;3.60;;;2.30;;
76989;SDS011;65924;47.250;11.332;2024-03-06T02:38:22;4.20;;;2.30;;
76989;SDS011;65924;47.250;11.332;2024-03-06T02:38:53;4.40;;;1.70;;
76989;SDS011;65924;47.250;11.332;2024-03-06T02:39:24;3.80;;;1.70;;
76989;SDS011;65924;47.250;11.332;2024-03-06T02:39:54;3.80;;;2.20;;
76989;SDS011;65924;47.250;11.332;2024-03-06T02:40:24;3.20;;;1.50;;
76989;SDS011;65924;47.250;11.332;2024-03-06T02:40:55;4.40;;;1.60;;
76989;SDS011;65924;47.250;11.332;2024-03-06T02:41:27;3.80;;;1.60;;
76989;SDS011;65924;47.250;11.332;2024-03-06T02:41:57;3.40;;;1.80;;
76989;SDS011;65924;47.250;11.332;2024-03-06T02:42:27;3.40;;;1.50;;
76989;SDS011;65924;47.250;11.332;2024-03-06T02:42:58;3.40;;;1.70;;
76989;SDS011;65924;47.250;11.332;2024-03-06T02:43:28;3.70;;;1.90;;
76989;SDS011;65924;47.250;11.332;2024-03-06T02:43:59;3.90;;;1.70;;
76989;SDS011;65924;47.250;11.332;2024-03-06T02:44:29;3.50;;;1.70;;
76989;SDS011;65924;47.250;11.332;2024-03-06T02:45:00;3.70;;;2.30;;
76989;SDS011;65924;47.250;11.332;2024-03-06T02:45:30;3.60;;;2.20;;
76989;SDS011;65924;47.250;11.332;2024-03-06T02:46:01;4.50;;;2.10;;
76989;SDS011;65924;47.250;11.332;2024-03-06T02:46:31;3.40;;;1.70;;
76989;SDS011;65924;47.250;11.332;2024-03-06T02:47:02;4.00;;;1.90;;
76989;SDS011;65924;47.250;11.332;2024-03-06T02:47:33;3.60;;;1.70;;
76989;SDS011;65924;47.250;11.332;2024-03-06T02:48:04;4.80;;;2.00;;
76989;SDS011;65924;47.250;11.332;2024-03-06T02:48:35;3.90;;;1.90;;
76989;SDS011;65924;47.250;11.332;2024-03-06T02:49:05;4.60;;;1.80;;
76989;SDS011;65924;47.250;11.332;2024-03-06T02:49:36;3.30;;;1.80;;
76989;SDS011;65924;47.250;11.332;2024-03-06T02:50:07;4.10;;;2.10;;
76989;SDS011;65924;47.250;11.332;2024-03-06T02:50:37;3.70;;;1.90;;
76989;SDS011;65924;47.250;11.332;2024-03-06T02:51:08;3.60;;;1.80;;
76989;SDS011;65924;47.250;11.332;2024-03-06T02:51:38;3.90;;;2.00;;
76989;SDS011;65924;47.250;11.332;2024-03-06T02:52:09;3.80;;;2.00;;
76989;SDS011;65924;47.250;11.332;2024-03-06T02:52:39;4.20;;;1.90;;
76989;SDS011;65924;47.250;11.332;2024-03-06T02:53:10;3.80;;;2.10;;
76989;SDS011;65924;47.250;11.332;2024-03-06T02:53:40;3.70;;;2.00;;
76989;SDS011;65924;47.250;11.332;2024-03-06T02:54:11;3.60;;;2.00;;
76989;SDS011;65924;47.250;11.332;2024-03-06T02:54:41;3.60;;;1.80;;
76989;SDS011;65924;47.250;11.332;2024-03-06T02:55:12;3.80;;;2.10;;
76989;SDS011;65924;47.250;11.332;2024-03-06T02:55:42;4.00;;;1.60;;
76989;SDS011;65924;47.250;11.332;2024-03-06T02:56:16;3.60;;;1.70;;
76989;SDS011;65924;47.250;11.332;2024-03-06T02:56:47;3.70;;;2.00;;
76989;SDS011;65924;47.250;11.332;2024-03-06T02:57:17;3.70;;;2.10;;
76989;SDS011;65924;47.250;11.332;2024-03-06T02:57:48;4.30;;;2.30;;
76989;SDS011;65924;47.250;11.332;2024-03-06T02:58:18;5.00;;;2.00;;
76989;SDS011;65924;47.250;11.332;2024-03-06T02:58:48;4.80;;;1.80;;
76989;SDS011;65924;47.250;11.332;2024-03-06T02:59:19;4.30;;;2.40;;
76989;SDS011;65924;47.250;11.332;2024-03-06T02:59:51;4.70;;;2.60;;
76989;SDS011;65924;47.250;11.332;2024-03-06T03:00:21;4.50;;;2.20;;
76989;SDS011;65924;47.250;11.332;2024-03-06T03:00:52;4.10;;;2.40;;
76989;SDS011;65924;47.250;11.332;2024-03-06T03:01:22;3.80;;;2.10;;
76989;SDS011;65924;47.250;11.332;2024-03-06T03:01:54;3.80;;;2.10;;
76989;SDS011;65924;47.250;11.332;2024-03-06T03:02:24;4.00;;;1.90;;
76989;SDS011;65924;47.250;11.332;2024-03-06T03:02:55;3.60;;;2.10;;
76989;SDS011;65924;47.250;11.332;2024-03-06T03:03:25;3.90;;;2.00;;
76989;SDS011;65924;47.250;11.332;2024-03-06T03:03:57;4.30;;;1.70;;
76989;SDS011;65924;47.250;11.332;2024-03-06T03:04:27;3.70;;;2.20;;